Time;durP1;ratioP1;P1;durP2;ratioP2;P2;SDS_P1;SDS_P2;PMS_P1;PMS_P2;Temp;Humidity;BMP_temperature;BMP_pressure;BME280_temperature;BME280_humidity;BME280_pressure;Samples;Min_cycle;Max_cycle;Signal;HPM_P1;HPM_P2
2022/11/29 00:01:02;;;;;;;122.22;43.08;;;;;;;;;;6255742;28;20114;-56
2022/11/29 00:04:03;;;;;;;124.40;45.05;;;;;;;;;;6250107;28;20045;-60
2022/11/29 00:07:04;;;;;;;118.78;42.92;;;;;;;;;;6249196;28;20110;-58
2022/11/29 00:10:05;;;;;;;122.25;41.70;;;;;;;;;;6264878;28;20462;-56
2022/11/29 00:13:06;;;;;;;125.38;42.55;;;;;;;;;;6254076;28;20136;-58
2022/11/29 00:16:10;;;;;;;163.40;53.13;;;;;;;;;;6250791;28;20381;-57
2022/11/29 00:19:12;;;;;;;157.93;54.53;;;;;;;;;;6251163;28;20095;-71
2022/11/29 00:22:12;;;;;;;144.07;47.07;;;;;;;;;;6247957;28;20198;-58
2022/11/29 00:25:13;;;;;;;160.98;50.47;;;;;;;;;;6254296;28;20057;-61
2022/11/29 00:28:13;;;;;;;154.35;47.97;;;;;;;;;;6254446;28;20049;-57
2022/11/29 00:31:21;;;;;;;138.23;47.78;;;;;;;;;;6248385;28;20099;-72
2022/11/29 00:34:22;;;;;;;156.90;51.47;;;;;;;;;;6249296;28;20056;-58
2022/11/29 00:37:23;;;;;;;142.05;47.35;;;;;;;;;;6250361;28;20503;-65
2022/11/29 00:40:23;;;;;;;139.82;46.83;;;;;;;;;;6265008;28;20081;-58
2022/11/29 00:43:24;;;;;;;154.52;51.38;;;;;;;;;;6253936;28;20596;-56
2022/11/29 00:46:24;;;;;;;160.85;55.13;;;;;;;;;;6250970;28;20069;-56
2022/11/29 00:49:25;;;;;;;165.15;55.42;;;;;;;;;;6248036;28;20041;-59
2022/11/29 00:52:26;;;;;;;150.20;49.22;;;;;;;;;;6249636;28;20547;-57
2022/11/29 00:55:26;;;;;;;143.98;46.90;;;;;;;;;;6250424;28;20051;-58
2022/11/29 00:58:27;;;;;;;146.02;46.20;;;;;;;;;;6247390;28;20460;-61
2022/11/29 01:01:27;;;;;;;138.52;48.45;;;;;;;;;;6253713;28;20053;-59
2022/11/29 01:04:28;;;;;;;132.05;44.25;;;;;;;;;;6252544;28;20152;-59
2022/11/29 01:07:28;;;;;;;129.75;44.17;;;;;;;;;;6263042;28;20049;-56
2022/11/29 01:10:29;;;;;;;136.25;45.65;;;;;;;;;;6258893;28;20068;-58
2022/11/29 01:13:30;;;;;;;134.07;44.15;;;;;;;;;;6258308;28;20037;-57
2022/11/29 01:16:31;;;;;;;122.28;43.85;;;;;;;;;;6253450;28;20388;-57
2022/11/29 01:19:33;;;;;;;111.18;39.13;;;;;;;;;;6249576;28;20057;-60
2022/11/29 01:22:34;;;;;;;115.10;40.08;;;;;;;;;;6250463;28;20053;-58
2022/11/29 01:25:35;;;;;;;111.88;39.95;;;;;;;;;;6248541;28;20045;-56
2022/11/29 01:28:37;;;;;;;108.93;36.97;;;;;;;;;;6253128;28;20049;-64
2022/11/29 01:31:37;;;;;;;118.68;40.50;;;;;;;;;;6248483;28;20159;-63
2022/11/29 01:34:38;;;;;;;114.10;39.13;;;;;;;;;;6252323;28;20048;-60
2022/11/29 01:37:39;;;;;;;112.32;40.08;;;;;;;;;;6256348;28;20472;-60
2022/11/29 01:40:39;;;;;;;115.72;38.47;;;;;;;;;;6253827;28;20535;-60
2022/11/29 01:44:11;;;;;;;109.05;38.70;;;;;;;;;;6263265;28;20053;-59
2022/11/29 01:47:12;;;;;;;107.63;36.53;;;;;;;;;;6259319;28;20140;-61
2022/11/29 01:50:13;;;;;;;113.65;38.75;;;;;;;;;;6252618;28;20053;-63
2022/11/29 01:53:15;;;;;;;103.90;37.22;;;;;;;;;;6246662;28;20041;-59
2022/11/29 01:56:16;;;;;;;104.25;37.25;;;;;;;;;;6242138;28;20508;-60
2022/11/29 01:59:20;;;;;;;107.03;38.40;;;;;;;;;;6250631;28;20051;-59
2022/11/29 02:02:29;;;;;;;104.55;38.85;;;;;;;;;;6251523;28;20049;-62
2022/11/29 02:05:32;;;;;;;106.90;36.03;;;;;;;;;;6253494;28;20096;-57
2022/11/29 02:08:38;;;;;;;100.32;36.22;;;;;;;;;;6252617;28;20052;-61
2022/11/29 02:11:50;;;;;;;93.75;35.22;;;;;;;;;;6250939;28;20587;-59
2022/11/29 02:15:09;;;;;;;;;;;;;;;;;;6252411;28;20045;-59
2022/11/29 02:18:14;;;;;;;102.13;36.30;;;;;;;;;;6254741;28;19921;-61
2022/11/29 02:21:53;;;;;;;110.40;38.17;;;;;;;;;;6267990;28;20060;-59
2022/11/29 02:25:46;;;;;;;104.95;35.50;;;;;;;;;;6242437;28;20560;-58
2022/11/29 02:29:14;;;;;;;99.95;35.60;;;;;;;;;;6250872;28;20056;-67
2022/11/29 02:32:52;;;;;;;104.97;35.65;;;;;;;;;;6250228;28;20045;-66
2022/11/29 02:35:59;;;;;;;99.72;34.90;;;;;;;;;;6256448;28;20102;-70
2022/11/29 02:39:21;;;;;;;93.32;35.22;;;;;;;;;;6267058;28;20053;-59
2022/11/29 02:42:49;;;;;;;98.40;35.08;;;;;;;;;;6253042;28;20512;-57
2022/11/29 02:46:08;;;;;;;105.30;35.38;;;;;;;;;;6256670;28;20080;-57
2022/11/29 02:49:36;;;;;;;100.90;34.10;;;;;;;;;;6266448;28;20053;-58
2022/11/29 02:53:02;;;;;;;97.68;36.30;;;;;;;;;;6261708;28;20088;-59
2022/11/29 02:56:40;;;;;;;103.60;34.78;;;;;;;;;;6253489;28;20067;-58
2022/11/29 03:00:09;;;;;;;87.60;31.27;;;;;;;;;;6256786;28;20046;-59
2022/11/29 03:03:34;;;;;;;91.00;32.65;;;;;;;;;;6249643;28;20090;-58
2022/11/29 03:06:40;;;;;;;94.38;33.22;;;;;;;;;;6252138;28;20397;-56
2022/11/29 03:09:54;;;;;;;97.00;34.90;;;;;;;;;;6259684;28;20456;-59
2022/11/29 03:12:57;;;;;;;99.15;33.80;;;;;;;;;;6251107;28;20158;-64
2022/11/29 03:16:02;;;;;;;;;;;;;;;;;;6251694;28;20053;-58
2022/11/29 03:19:17;;;;;;;91.65;31.83;;;;;;;;;;6252232;28;19931;-57
2022/11/29 03:22:31;;;;;;;92.28;33.00;;;;;;;;;;6249621;28;20041;-62
2022/11/29 03:25:41;;;;;;;104.35;36.17;;;;;;;;;;6248969;28;20110;-56
2022/11/29 03:28:55;;;;;;;96.95;34.63;;;;;;;;;;6251764;28;20136;-55
2022/11/29 03:32:24;;;;;;;99.57;33.70;;;;;;;;;;6251325;28;20128;-60
2022/11/29 03:35:34;;;;;;;98.65;34.97;;;;;;;;;;6250411;28;20057;-58
2022/11/29 03:38:44;;;;;;;101.18;33.40;;;;;;;;;;6249685;28;20052;-58
2022/11/29 03:42:09;;;;;;;87.88;32.83;;;;;;;;;;6248606;28;20050;-58
2022/11/29 03:45:21;;;;;;;94.45;34.22;;;;;;;;;;6256466;28;20542;-60
2022/11/29 03:48:47;;;;;;;96.63;35.03;;;;;;;;;;6262130;28;20049;-58
2022/11/29 03:51:50;;;;;;;95.32;32.38;;;;;;;;;;6243212;28;20053;-59
2022/11/29 03:55:28;;;;;;;99.15;35.85;;;;;;;;;;6248869;28;20168;-66
2022/11/29 03:58:32;;;;;;;101.07;36.63;;;;;;;;;;6256455;28;20155;-60
2022/11/29 04:02:04;;;;;;;98.35;34.38;;;;;;;;;;6260812;28;20451;-60
2022/11/29 04:05:32;;;;;;;92.70;33.90;;;;;;;;;;6262572;28;20057;-62
2022/11/29 04:08:42;;;;;;;88.57;31.33;;;;;;;;;;6249329;28;20049;-58
2022/11/29 04:12:14;;;;;;;93.55;31.80;;;;;;;;;;6247386;28;20045;-59
2022/11/29 04:15:53;;;;;;;82.93;31.20;;;;;;;;;;6254376;28;20065;-59
2022/11/29 04:19:29;;;;;;;93.68;33.55;;;;;;;;;;6249964;28;20435;-60
2022/11/29 04:23:08;;;;;;;85.82;32.65;;;;;;;;;;6250900;28;20053;-58
2022/11/29 04:26:46;;;;;;;92.53;33.10;;;;;;;;;;6265087;28;20053;-57
2022/11/29 04:29:49;;;;;;;95.18;34.28;;;;;;;;;;6250902;28;20046;-58
2022/11/29 04:33:15;;;;;;;90.40;33.92;;;;;;;;;;6261776;28;20049;-58
2022/11/29 04:36:40;;;;;;;95.28;33.15;;;;;;;;;;6255620;28;20041;-59
2022/11/29 04:39:56;;;;;;;87.32;32.08;;;;;;;;;;6250694;28;20045;-60
2022/11/29 04:43:34;;;;;;;93.97;35.05;;;;;;;;;;6266637;28;20049;-60
2022/11/29 04:47:10;;;;;;;89.28;32.95;;;;;;;;;;6254325;28;20048;-70
2022/11/29 04:51:05;;;;;;;95.25;33.15;;;;;;;;;;6262128;28;20431;-58
2022/11/29 04:54:29;;;;;;;85.57;32.05;;;;;;;;;;6182836;28;20037;-58
2022/11/29 04:57:47;;;;;;;95.90;33.97;;;;;;;;;;6254105;28;20558;-57
2022/11/29 05:01:11;;;;;;;91.57;33.72;;;;;;;;;;6257109;28;20500;-60
2022/11/29 05:04:23;;;;;;;94.70;34.63;;;;;;;;;;6244816;28;20071;-59
2022/11/29 05:07:36;;;;;;;95.85;34.30;;;;;;;;;;6252559;28;20132;-57
2022/11/29 05:11:04;;;;;;;94.80;35.33;;;;;;;;;;6266866;28;20496;-58
2022/11/29 05:14:05;;;;;;;89.82;33.28;;;;;;;;;;6254102;28;20123;-57
2022/11/29 05:17:38;;;;;;;94.35;35.22;;;;;;;;;;6254109;28;20045;-58
2022/11/29 05:21:02;;;;;;;86.38;34.17;;;;;;;;;;6263343;28;20057;-61
2022/11/29 05:24:15;;;;;;;90.63;33.85;;;;;;;;;;6268483;28;20095;-62
2022/11/29 05:27:26;;;;;;;85.10;33.38;;;;;;;;;;6274726;28;20079;-58
2022/11/29 05:30:47;;;;;;;91.68;34.45;;;;;;;;;;6253681;28;20057;-60
2022/11/29 05:33:58;;;;;;;90.47;34.38;;;;;;;;;;6253071;28;20045;-57
2022/11/29 05:37:07;;;;;;;85.25;36.45;;;;;;;;;;6251016;28;20049;-57
2022/11/29 05:40:20;;;;;;;101.53;35.70;;;;;;;;;;6253297;28;20049;-63
2022/11/29 05:43:38;;;;;;;97.07;35.53;;;;;;;;;;6243321;28;20148;-58
2022/11/29 05:46:45;;;;;;;95.90;37.90;;;;;;;;;;6253417;28;20496;-59
2022/11/29 05:50:11;;;;;;;103.13;40.17;;;;;;;;;;6254425;28;20179;-58
2022/11/29 05:53:21;;;;;;;98.70;38.53;;;;;;;;;;6253054;28;21542;-58
2022/11/29 05:56:44;;;;;;;107.47;40.22;;;;;;;;;;6257304;28;20057;-60
2022/11/29 05:59:47;;;;;;;101.68;40.25;;;;;;;;;;6262306;28;20055;-58
2022/11/29 06:03:02;;;;;;;103.53;38.88;;;;;;;;;;6265719;28;20130;-60
2022/11/29 06:06:17;;;;;;;94.20;37.17;;;;;;;;;;6256400;28;20060;-60
2022/11/29 06:09:31;;;;;;;94.53;36.53;;;;;;;;;;6251308;28;20148;-59
2022/11/29 06:12:34;;;;;;;95.30;37.40;;;;;;;;;;6252685;28;20044;-61
2022/11/29 06:16:09;;;;;;;98.35;36.63;;;;;;;;;;6245288;28;20057;-61
2022/11/29 06:19:19;;;;;;;91.05;36.53;;;;;;;;;;6266848;28;20053;-66
2022/11/29 06:22:41;;;;;;;84.80;34.72;;;;;;;;;;6252331;28;20675;-58
2022/11/29 06:26:17;;;;;;;91.35;34.20;;;;;;;;;;6248610;28;20535;-60
2022/11/29 06:29:31;;;;;;;95.15;34.75;;;;;;;;;;6261070;28;20049;-58
2022/11/29 06:32:42;;;;;;;90.20;34.58;;;;;;;;;;6257874;28;20055;-57
2022/11/29 06:36:18;;;;;;;101.72;36.75;;;;;;;;;;6252666;28;20049;-59
2022/11/29 06:39:19;;;;;;;95.57;36.42;;;;;;;;;;6216242;28;20063;-57
2022/11/29 06:42:19;;;;;;;103.60;39.08;;;;;;;;;;6258724;28;20041;-59
2022/11/29 06:45:20;;;;;;;118.45;44.92;;;;;;;;;;6252206;28;20425;-59
2022/11/29 06:48:37;;;;;;;154.60;56.25;;;;;;;;;;6250839;28;20057;-63
2022/11/29 06:52:07;;;;;;;163.35;58.42;;;;;;;;;;6249170;28;20066;-57
2022/11/29 06:55:43;;;;;;;238.88;73.15;;;;;;;;;;6251096;28;20047;-59
2022/11/29 06:58:55;;;;;;;159.80;55.95;;;;;;;;;;6264252;28;20071;-58
2022/11/29 07:02:03;;;;;;;147.05;54.88;;;;;;;;;;6255014;28;20056;-57
2022/11/29 07:05:23;;;;;;;170.38;62.05;;;;;;;;;;6250929;28;20107;-59
2022/11/29 07:08:24;;;;;;;171.82;63.78;;;;;;;;;;6248678;28;22318;-57
2022/11/29 07:11:25;;;;;;;169.65;59.17;;;;;;;;;;6251490;28;20092;-66
2022/11/29 07:14:26;;;;;;;211.45;72.18;;;;;;;;;;6262633;28;20056;-59
2022/11/29 07:17:34;;;;;;;190.05;68.32;;;;;;;;;;6259887;28;20056;-59
2022/11/29 07:20:53;;;;;;;196.57;69.43;;;;;;;;;;6252251;28;20076;-58
2022/11/29 07:24:03;;;;;;;213.07;75.65;;;;;;;;;;6244979;28;20451;-60
2022/11/29 07:27:29;;;;;;;197.55;72.78;;;;;;;;;;6248135;28;20048;-61
2022/11/29 07:30:36;;;;;;;228.32;81.90;;;;;;;;;;6266681;28;20095;-56
2022/11/29 07:33:40;;;;;;;222.30;76.15;;;;;;;;;;6268316;28;20144;-58
2022/11/29 07:37:01;;;;;;;162.13;58.25;;;;;;;;;;6264257;28;20396;-59
2022/11/29 07:40:05;;;;;;;152.60;53.05;;;;;;;;;;6249267;28;22031;-58
2022/11/29 07:43:31;;;;;;;147.70;50.00;;;;;;;;;;6254973;28;20131;-68
2022/11/29 07:46:32;;;;;;;145.20;51.90;;;;;;;;;;6250546;28;20046;-57
2022/11/29 07:49:32;;;;;;;148.98;54.63;;;;;;;;;;6248098;28;20048;-58
2022/11/29 07:52:33;;;;;;;147.20;47.83;;;;;;;;;;6245821;28;20049;-56
2022/11/29 07:55:35;;;;;;;141.82;47.72;;;;;;;;;;6251313;28;20037;-58
2022/11/29 07:58:36;;;;;;;135.90;46.53;;;;;;;;;;6256464;28;20098;-59
2022/11/29 08:01:37;;;;;;;133.32;47.95;;;;;;;;;;6263584;28;20044;-57
2022/11/29 08:04:42;;;;;;;139.45;47.05;;;;;;;;;;6265414;28;20041;-57
2022/11/29 08:07:43;;;;;;;146.95;45.60;;;;;;;;;;6267140;28;20041;-59
2022/11/29 08:10:44;;;;;;;128.50;43.33;;;;;;;;;;6254577;28;20069;-59
2022/11/29 08:13:44;;;;;;;131.43;44.33;;;;;;;;;;6250936;28;20040;-58
2022/11/29 08:16:45;;;;;;;135.05;44.67;;;;;;;;;;6247345;28;20071;-71
2022/11/29 08:19:46;;;;;;;121.47;42.08;;;;;;;;;;6248741;28;20643;-61
2022/11/29 08:22:57;;;;;;;129.35;44.58;;;;;;;;;;6261491;28;20048;-59
2022/11/29 08:26:00;;;;;;;141.27;46.35;;;;;;;;;;6264234;28;20403;-57
2022/11/29 08:29:00;;;;;;;;;;;;;;;;;;6267145;28;20049;-56
2022/11/29 08:32:01;;;;;;;135.90;46.92;;;;;;;;;;6264901;28;19921;-57
2022/11/29 08:35:02;;;;;;;134.13;42.25;;;;;;;;;;6266229;28;20045;-58
2022/11/29 08:38:03;;;;;;;155.85;50.28;;;;;;;;;;6266876;28;20040;-58
2022/11/29 08:41:06;;;;;;;146.60;45.45;;;;;;;;;;6266024;28;20125;-58
2022/11/29 08:44:08;;;;;;;131.43;42.63;;;;;;;;;;6269677;28;20047;-60
2022/11/29 08:50:28;;;;;;;152.20;44.15;;;;;;;;;;6271201;28;20135;-56
2022/11/29 08:53:41;;;;;;;189.32;55.05;;;;;;;;;;6270336;28;20048;-59
2022/11/29 08:56:41;;;;;;;167.77;58.10;;;;;;;;;;6270926;28;20068;-58
2022/11/29 08:59:43;;;;;;;155.32;49.10;;;;;;;;;;6271265;28;20049;-57
2022/11/29 09:02:44;;;;;;;154.73;53.05;;;;;;;;;;6270451;28;20484;-65
2022/11/29 09:05:44;;;;;;;149.32;49.25;;;;;;;;;;6270603;28;20051;-56
2022/11/29 09:08:45;;;;;;;156.98;49.22;;;;;;;;;;6266147;28;20049;-58
2022/11/29 09:11:46;;;;;;;165.63;52.75;;;;;;;;;;6253105;28;20052;-63
2022/11/29 09:14:47;;;;;;;165.73;59.30;;;;;;;;;;6258207;28;20183;-51
2022/11/29 09:17:48;;;;;;;145.20;45.17;;;;;;;;;;6252719;28;20080;-56
2022/11/29 09:20:48;;;;;;;168.93;60.42;;;;;;;;;;6255107;28;20389;-59
2022/11/29 09:23:56;;;;;;;128.63;42.80;;;;;;;;;;6253382;28;20045;-60
2022/11/29 09:26:57;;;;;;;159.13;56.92;;;;;;;;;;6254201;28;20057;-59
2022/11/29 09:29:57;;;;;;;138.18;43.22;;;;;;;;;;6251470;28;20473;-58
2022/11/29 09:33:01;;;;;;;147.70;48.35;;;;;;;;;;6250484;28;20480;-56
2022/11/29 09:36:02;;;;;;;151.07;45.53;;;;;;;;;;6252427;28;20416;-56
2022/11/29 09:39:03;;;;;;;171.73;49.20;;;;;;;;;;6250979;28;20491;-60
2022/11/29 09:42:30;;;;;;;131.18;45.28;;;;;;;;;;6252055;28;20324;-57
2022/11/29 09:45:40;;;;;;;146.95;47.70;;;;;;;;;;6244993;28;20057;-60
2022/11/29 09:49:04;;;;;;;118.93;40.70;;;;;;;;;;6253640;28;20465;-63
2022/11/29 09:52:23;;;;;;;143.50;45.08;;;;;;;;;;6261765;28;20540;-58
2022/11/29 09:55:30;;;;;;;171.20;54.58;;;;;;;;;;6262730;28;20347;-60
2022/11/29 09:58:40;;;;;;;163.80;52.60;;;;;;;;;;6258421;28;20140;-56
2022/11/29 10:01:46;;;;;;;178.48;57.17;;;;;;;;;;6270369;28;20052;-55
2022/11/29 10:04:52;;;;;;;165.65;54.20;;;;;;;;;;6252611;28;20045;-60
2022/11/29 10:08:02;;;;;;;177.02;59.00;;;;;;;;;;6250539;28;20053;-58
2022/11/29 10:11:29;;;;;;;169.57;56.42;;;;;;;;;;6249796;28;20408;-57
2022/11/29 10:14:56;;;;;;;153.35;51.25;;;;;;;;;;6252349;28;20056;-60
2022/11/29 10:18:03;;;;;;;140.18;47.63;;;;;;;;;;6243689;28;20057;-59
2022/11/29 10:21:14;;;;;;;143.60;46.92;;;;;;;;;;6250538;28;20143;-59
2022/11/29 10:24:19;;;;;;;145.43;51.03;;;;;;;;;;6250291;28;20044;-59
2022/11/29 10:27:22;;;;;;;139.85;49.25;;;;;;;;;;6249680;28;20059;-58
2022/11/29 10:30:23;;;;;;;139.20;46.72;;;;;;;;;;6250990;28;20124;-60
2022/11/29 10:33:33;;;;;;;144.05;50.13;;;;;;;;;;6250771;28;20044;-59
2022/11/29 10:36:44;;;;;;;133.25;46.15;;;;;;;;;;6248499;28;20040;-62
2022/11/29 10:39:49;;;;;;;148.95;49.03;;;;;;;;;;6248305;28;20080;-59
2022/11/29 10:42:53;;;;;;;154.50;50.15;;;;;;;;;;6249530;28;20102;-58
2022/11/29 10:45:55;;;;;;;153.88;50.63;;;;;;;;;;6250992;28;20057;-57
2022/11/29 10:48:59;;;;;;;149.60;50.43;;;;;;;;;;6249706;28;20045;-57
2022/11/29 10:52:00;;;;;;;162.32;55.38;;;;;;;;;;6249487;28;20049;-58
2022/11/29 10:55:01;;;;;;;195.25;59.60;;;;;;;;;;6250181;28;20033;-59
2022/11/29 10:58:20;;;;;;;174.18;57.55;;;;;;;;;;6250115;28;20052;-57
2022/11/29 11:01:22;;;;;;;187.45;61.72;;;;;;;;;;6253105;28;20045;-59
2022/11/29 11:04:34;;;;;;;164.45;58.17;;;;;;;;;;6250741;28;20049;-59
2022/11/29 11:07:35;;;;;;;176.63;57.25;;;;;;;;;;6248275;28;20149;-58
2022/11/29 11:10:36;;;;;;;178.90;57.13;;;;;;;;;;6250493;28;20044;-59
2022/11/29 11:13:38;;;;;;;182.70;59.58;;;;;;;;;;6252758;28;20041;-56
2022/11/29 11:16:38;;;;;;;189.55;59.33;;;;;;;;;;6255506;28;20103;-58
2022/11/29 11:19:39;;;;;;;211.00;66.03;;;;;;;;;;6261583;28;20057;-59
2022/11/29 11:22:40;;;;;;;168.73;56.17;;;;;;;;;;6254397;28;20466;-57
2022/11/29 11:25:40;;;;;;;182.30;57.13;;;;;;;;;;6249773;28;20429;-58
2022/11/29 11:29:01;;;;;;;158.57;51.05;;;;;;;;;;6250596;28;20049;-58
2022/11/29 11:32:04;;;;;;;156.07;49.05;;;;;;;;;;6254186;28;20135;-58
2022/11/29 11:35:21;;;;;;;162.77;51.28;;;;;;;;;;6255414;28;20500;-60
2022/11/29 11:38:22;;;;;;;154.98;49.92;;;;;;;;;;6247985;28;20501;-58
2022/11/29 11:42:35;;;;;;;161.13;54.22;;;;;;;;;;6250729;28;20045;-59
2022/11/29 11:44:48;;;;;;;140.35;45.58;;;;;;;;;;6249326;28;20057;-59
2022/11/29 11:47:52;;;;;;;156.13;49.13;;;;;;;;;;6250448;28;20479;-60
2022/11/29 11:50:56;;;;;;;228.43;74.72;;;;;;;;;;6248103;28;20037;-59
2022/11/29 11:53:57;;;;;;;169.02;52.33;;;;;;;;;;6247799;28;20063;-59
2022/11/29 11:56:58;;;;;;;158.27;52.65;;;;;;;;;;6251262;28;20532;-63
2022/11/29 11:59:59;;;;;;;154.55;51.50;;;;;;;;;;6246911;28;20182;-58
2022/11/29 12:03:00;;;;;;;138.68;46.67;;;;;;;;;;6244830;28;20123;-59
2022/11/29 12:06:41;;;;;;;155.90;50.63;;;;;;;;;;6250101;28;20048;-59
2022/11/29 12:09:56;;;;;;;147.57;48.92;;;;;;;;;;6244907;28;20465;-58
2022/11/29 12:12:59;;;;;;;156.77;51.60;;;;;;;;;;6248247;28;20425;-58
2022/11/29 12:16:06;;;;;;;163.63;51.38;;;;;;;;;;6246430;28;20055;-58
2022/11/29 12:19:30;;;;;;;165.13;57.58;;;;;;;;;;6243380;28;20057;-58
2022/11/29 12:22:40;;;;;;;180.48;58.70;;;;;;;;;;6250960;28;20049;-66
2022/11/29 12:25:49;;;;;;;161.55;51.40;;;;;;;;;;6253466;28;20135;-56
2022/11/29 12:28:51;;;;;;;158.82;56.90;;;;;;;;;;6260393;28;20075;-62
2022/11/29 12:32:34;;;;;;;145.32;50.65;;;;;;;;;;6253271;28;20868;-62
2022/11/29 12:35:42;;;;;;;137.57;45.08;;;;;;;;;;6255486;28;20053;-64
2022/11/29 12:39:11;;;;;;;130.60;43.72;;;;;;;;;;6251847;28;22027;-59
2022/11/29 12:42:56;;;;;;;132.52;43.95;;;;;;;;;;6255631;28;20049;-62
2022/11/29 12:46:04;;;;;;;127.85;44.33;;;;;;;;;;6237872;28;21462;-61
2022/11/29 12:49:17;;;;;;;120.15;41.92;;;;;;;;;;6253104;28;20045;-54
2022/11/29 12:52:33;;;;;;;127.13;42.40;;;;;;;;;;6251325;28;20044;-60
2022/11/29 12:55:58;;;;;;;128.63;42.53;;;;;;;;;;6250494;28;20526;-66
2022/11/29 12:59:22;;;;;;;131.52;42.10;;;;;;;;;;6257540;28;20055;-61
2022/11/29 13:02:48;;;;;;;121.28;41.30;;;;;;;;;;6250975;28;20037;-63
2022/11/29 13:06:17;;;;;;;119.68;39.42;;;;;;;;;;6245559;28;20519;-61
2022/11/29 13:10:19;;;;;;;136.68;43.08;;;;;;;;;;6249157;28;20055;-58
2022/11/29 13:13:31;;;;;;;235.07;85.40;;;;;;;;;;6159226;28;20055;-57
2022/11/29 13:16:32;;;;;;;;;;;;;;;;;;6251099;28;20401;-59
2022/11/29 13:19:37;;;;;;;143.80;44.97;;;;;;;;;;6260679;28;19921;-57
2022/11/29 13:22:51;;;;;;;136.52;42.63;;;;;;;;;;6249247;28;20037;-58
2022/11/29 13:25:53;;;;;;;143.10;45.15;;;;;;;;;;6248285;28;20037;-60
2022/11/29 13:28:56;;;;;;;138.85;40.97;;;;;;;;;;6249200;28;20072;-58
2022/11/29 13:31:57;;;;;;;153.45;43.58;;;;;;;;;;6251045;28;20148;-57
2022/11/29 13:35:06;;;;;;;200.57;58.67;;;;;;;;;;6250856;28;20042;-58
2022/11/29 13:38:15;;;;;;;163.73;51.28;;;;;;;;;;6253230;28;20045;-58
2022/11/29 13:41:35;;;;;;;122.70;42.92;;;;;;;;;;6253784;28;20109;-57
2022/11/29 13:45:00;;;;;;;211.15;64.70;;;;;;;;;;6252685;28;20053;-63
2022/11/29 13:48:20;;;;;;;215.90;67.97;;;;;;;;;;6251633;28;20071;-54
2022/11/29 13:51:36;;;;;;;216.30;72.60;;;;;;;;;;6253254;28;20053;-57
2022/11/29 13:54:37;;;;;;;241.15;83.95;;;;;;;;;;6252628;28;20049;-58
2022/11/29 13:57:51;;;;;;;245.00;88.63;;;;;;;;;;6252642;28;20120;-58
2022/11/29 14:00:57;;;;;;;195.15;62.95;;;;;;;;;;6250351;28;20074;-59
2022/11/29 14:04:05;;;;;;;174.68;59.70;;;;;;;;;;6251971;28;20048;-58
2022/11/29 14:07:12;;;;;;;267.35;97.40;;;;;;;;;;6252656;28;20519;-59
2022/11/29 14:10:23;;;;;;;288.55;103.72;;;;;;;;;;6251195;28;20056;-58
2022/11/29 14:13:43;;;;;;;274.60;95.20;;;;;;;;;;6251096;28;20427;-56
2022/11/29 14:16:54;;;;;;;203.32;68.88;;;;;;;;;;6250217;28;20154;-57
2022/11/29 14:20:21;;;;;;;229.85;77.45;;;;;;;;;;6251933;28;20500;-58
2022/11/29 14:23:39;;;;;;;200.85;71.18;;;;;;;;;;6254414;28;20046;-58
2022/11/29 14:26:40;;;;;;;247.73;73.55;;;;;;;;;;6249004;28;20136;-57
2022/11/29 14:29:49;;;;;;;233.57;73.75;;;;;;;;;;6252293;28;20090;-57
2022/11/29 14:33:03;;;;;;;193.75;63.50;;;;;;;;;;6251084;28;20140;-57
2022/11/29 14:36:21;;;;;;;197.25;63.65;;;;;;;;;;6249725;28;20136;-59
2022/11/29 14:39:46;;;;;;;371.10;129.43;;;;;;;;;;6250127;28;20049;-58
2022/11/29 14:42:47;;;;;;;397.40;135.43;;;;;;;;;;6250629;28;20049;-55
2022/11/29 14:46:12;;;;;;;275.35;96.50;;;;;;;;;;6249077;28;20090;-56
2022/11/29 14:49:23;;;;;;;236.75;74.88;;;;;;;;;;6251516;28;20585;-57
2022/11/29 14:52:50;;;;;;;211.20;71.07;;;;;;;;;;6250343;28;20393;-58
2022/11/29 14:56:46;;;;;;;185.07;60.03;;;;;;;;;;6242108;28;20045;-58
2022/11/29 14:59:52;;;;;;;173.18;57.45;;;;;;;;;;6163323;28;20178;-55
2022/11/29 15:02:55;;;;;;;224.98;74.35;;;;;;;;;;6260819;28;20072;-59
2022/11/29 15:06:12;;;;;;;225.68;77.85;;;;;;;;;;6252107;28;20056;-56
2022/11/29 15:09:19;;;;;;;255.18;97.45;;;;;;;;;;6250844;28;20053;-58
2022/11/29 15:12:25;;;;;;;223.75;73.10;;;;;;;;;;6242772;28;20054;-56
2022/11/29 15:16:04;;;;;;;196.43;65.43;;;;;;;;;;6261997;28;20045;-62
2022/11/29 15:19:14;;;;;;;272.85;91.05;;;;;;;;;;6170269;28;20066;-57
2022/11/29 15:22:14;;;;;;;239.75;77.50;;;;;;;;;;6268231;28;20447;-59
2022/11/29 15:25:19;;;;;;;188.40;58.15;;;;;;;;;;6268536;28;20041;-58
2022/11/29 15:28:28;;;;;;;176.52;52.92;;;;;;;;;;6268101;28;20488;-58
2022/11/29 15:31:30;;;;;;;186.30;55.50;;;;;;;;;;6267767;28;20055;-58
2022/11/29 15:34:35;;;;;;;168.93;52.80;;;;;;;;;;6267979;28;20131;-57
2022/11/29 15:37:36;;;;;;;176.13;52.17;;;;;;;;;;6268106;28;20542;-57
2022/11/29 15:40:51;;;;;;;163.75;50.35;;;;;;;;;;6267172;28;20041;-56
2022/11/29 15:44:05;;;;;;;167.13;49.08;;;;;;;;;;6267936;28;20049;-57
2022/11/29 15:47:20;;;;;;;184.85;56.13;;;;;;;;;;6267850;28;20052;-58
2022/11/29 15:50:28;;;;;;;196.68;59.28;;;;;;;;;;6268333;28;20063;-57
2022/11/29 15:53:42;;;;;;;199.32;60.75;;;;;;;;;;6259922;28;20052;-58
2022/11/29 15:56:47;;;;;;;154.98;50.42;;;;;;;;;;6264620;28;20049;-58
2022/11/29 15:59:55;;;;;;;146.80;46.28;;;;;;;;;;6267949;28;20052;-58
2022/11/29 16:03:01;;;;;;;131.93;45.33;;;;;;;;;;6267248;28;20090;-56
2022/11/29 16:06:17;;;;;;;140.63;47.95;;;;;;;;;;6267057;28;20412;-57
2022/11/29 16:09:30;;;;;;;142.57;47.65;;;;;;;;;;6267631;28;20041;-58
2022/11/29 16:12:31;;;;;;;120.45;37.70;;;;;;;;;;6267550;28;20140;-56
2022/11/29 16:15:37;;;;;;;107.25;36.50;;;;;;;;;;6262908;28;20049;-58
2022/11/29 16:18:39;;;;;;;109.90;34.33;;;;;;;;;;6262419;28;20144;-59
2022/11/29 16:21:42;;;;;;;112.38;35.33;;;;;;;;;;6267848;28;20056;-57
2022/11/29 16:24:57;;;;;;;;;;;;;;;;;;6267372;28;20484;-59
2022/11/29 16:27:58;;;;;;;101.07;31.58;;;;;;;;;;6266524;28;19921;-58
2022/11/29 16:30:58;;;;;;;116.70;36.05;;;;;;;;;;6267997;28;20052;-57
2022/11/29 16:34:12;;;;;;;118.93;36.78;;;;;;;;;;6267291;28;20067;-56
2022/11/29 16:37:20;;;;;;;116.95;38.95;;;;;;;;;;6266843;28;20045;-58
2022/11/29 16:40:24;;;;;;;112.97;39.08;;;;;;;;;;6266233;28;20152;-57
2022/11/29 16:43:42;;;;;;;101.28;33.47;;;;;;;;;;6267202;28;20120;-59
2022/11/29 16:46:43;;;;;;;104.50;33.85;;;;;;;;;;6267586;28;20049;-57
2022/11/29 16:49:44;;;;;;;116.55;35.90;;;;;;;;;;6264984;28;20103;-60
2022/11/29 16:52:46;;;;;;;113.60;40.05;;;;;;;;;;6261673;28;20087;-59
2022/11/29 16:55:46;;;;;;;132.13;43.83;;;;;;;;;;6266804;28;20059;-59
2022/11/29 16:58:58;;;;;;;117.97;36.58;;;;;;;;;;6266127;28;20136;-59
2022/11/29 17:01:59;;;;;;;112.20;35.93;;;;;;;;;;6266422;28;20037;-60
2022/11/29 17:04:59;;;;;;;105.18;33.25;;;;;;;;;;6270106;28;20081;-57
2022/11/29 17:08:00;;;;;;;100.75;31.88;;;;;;;;;;6271595;28;20057;-62
2022/11/29 17:11:00;;;;;;;108.15;35.42;;;;;;;;;;6270037;28;20071;-59
2022/11/29 17:14:01;;;;;;;119.80;37.60;;;;;;;;;;6261228;28;20056;-57
2022/11/29 17:17:02;;;;;;;116.35;37.30;;;;;;;;;;6267105;28;20095;-60
2022/11/29 17:20:03;;;;;;;126.30;40.67;;;;;;;;;;6267389;28;20049;-62
2022/11/29 17:23:04;;;;;;;128.13;40.53;;;;;;;;;;6262524;28;20045;-63
2022/11/29 17:26:05;;;;;;;134.05;41.22;;;;;;;;;;6263795;28;20063;-62
2022/11/29 17:29:06;;;;;;;124.03;38.78;;;;;;;;;;6255531;28;20048;-61
2022/11/29 17:32:06;;;;;;;121.38;42.38;;;;;;;;;;6266070;28;20519;-69
2022/11/29 17:35:07;;;;;;;118.57;36.58;;;;;;;;;;6265087;28;20049;-68
2022/11/29 17:38:07;;;;;;;108.22;33.78;;;;;;;;;;6270846;28;20080;-66
2022/11/29 17:41:14;;;;;;;106.07;34.03;;;;;;;;;;6272451;28;20786;-63
2022/11/29 17:44:15;;;;;;;120.82;38.70;;;;;;;;;;6269842;28;20053;-63
2022/11/29 17:47:15;;;;;;;121.07;39.00;;;;;;;;;;6273290;28;20072;-63
2022/11/29 17:50:16;;;;;;;120.93;36.05;;;;;;;;;;6257427;28;20500;-69
2022/11/29 17:53:17;;;;;;;130.65;35.85;;;;;;;;;;6269479;28;20140;-65
2022/11/29 17:56:23;;;;;;;127.97;39.60;;;;;;;;;;6272796;28;20052;-70
2022/11/29 17:59:24;;;;;;;111.82;32.95;;;;;;;;;;6269548;28;20068;-69
2022/11/29 18:02:24;;;;;;;103.70;31.60;;;;;;;;;;6272603;28;20558;-66
2022/11/29 18:05:26;;;;;;;103.63;29.75;;;;;;;;;;6266635;28;20052;-65
2022/11/29 18:08:27;;;;;;;98.10;31.08;;;;;;;;;;6271956;28;20045;-64
2022/11/29 18:11:32;;;;;;;109.82;31.80;;;;;;;;;;6270806;28;20866;-62
2022/11/29 18:14:33;;;;;;;112.35;32.85;;;;;;;;;;6268524;28;20132;-67
2022/11/29 18:17:34;;;;;;;113.55;31.50;;;;;;;;;;6271898;28;20053;-68
2022/11/29 18:20:34;;;;;;;115.32;35.83;;;;;;;;;;6269639;28;20064;-65